Flight Track Log - Related Links

Times and Time Zones

All times are in EDT time to prevent confusion due to time zone crossing. See the THY2341 flight status page for this flight to view local times or setup timezone preferences in your user account.

Time Position Orientation Groundspeed Altitude Reporting Facility
EDT Latitude Longitude Course Direction KTS MPH feet Rate Location/Type
Sun 04:18:00 PM 39.2673 27.7448 25° Northeast  Level Estimated
Sun 04:19:00 PM 39.3246 27.7799 25° Northeast  Level Estimated
Sun 04:20:00 PM 39.3818 27.8151 25° Northeast  Level Estimated
Sun 04:21:00 PM 39.4390 27.8503 25° Northeast  Level Estimated
Sun 04:22:00 PM 39.4963 27.8855 25° Northeast  Level Estimated
Sun 04:23:00 PM 39.5535 27.9208 25° Northeast  Level Estimated
Sun 04:24:00 PM 39.6107 27.9562 25° Northeast  Level Estimated
Sun 04:25:00 PM 39.6679 27.9916 25° Northeast  Level Estimated
Sun 04:26:00 PM 39.7250 28.0271 26° Northeast  Level Estimated
Sun 04:27:00 PM 39.7822 28.0627 26° Northeast  Level Estimated
Sun 04:28:00 PM 39.8394 28.0983 26° Northeast  Level Estimated
Sun 04:29:00 PM 39.8965 28.1340 26° Northeast  Level Estimated
Sun 04:30:00 PM 39.9537 28.1697 26° Northeast  Level Estimated
Sun 04:31:00 PM 40.0108 28.2055 26° Northeast  Level Estimated
Sun 04:32:00 PM 40.0679 28.2413 26° Northeast  Level Estimated
Sun 04:33:00 PM 40.1250 28.2772 26° Northeast  Level Estimated
Sun 04:34:00 PM 40.1821 28.3132 26° Northeast  Level Estimated
Sun 04:35:00 PM 40.2392 28.3492 26° Northeast  Level Estimated
Sun 04:36:00 PM 40.2962 28.3853 26° Northeast  Level Estimated
Sun 04:37:00 PM 40.3533 28.4215 26° Northeast  Level Estimated
Sun 04:38:00 PM 40.4104 28.4577 26° Northeast  Level Estimated
Sun 04:39:00 PM 40.4674 28.4940 26° Northeast  Level Estimated
Sun 04:40:00 PM 40.5244 28.5303 26° Northeast  Level Estimated
Sun 04:41:00 PM 40.5814 28.5667 26° Northeast  Level Estimated
Sun 04:42:00 PM 40.6384 28.6032 26° Northeast  Level Estimated
Sun 04:43:00 PM 40.6954 28.6397 26° Northeast  Level Estimated
Sun 04:44:00 PM 40.7524 28.6763 26° Northeast  Level Estimated
Sun 04:45:00 PM 40.8094 28.7129 26° Northeast  Level Estimated
Sun 04:46:00 PM 40.8663 28.7496 26° Northeast  Level Estimated
Sun 04:47:00 PM 40.9233 28.7864 26° Northeast  Level Estimated
Sun 04:48:00 PM 40.9769 28.8211 26° Northeast  Level Estimated
Sun 04:49:00 PM 40.9769 28.8211 21° North  Level Estimated
Sun 04:50:00 PM 40.9769 28.8211 21° North  Level Estimated
Sun 04:51:00 PM 40.9769 28.8211 21° North  Level Estimated
Sun 04:52:00 PM 40.9769 28.8211 21° North  Level Estimated
Sun 04:53:00 PM 40.9769 28.8211 21° North  Level Estimated
Sun 04:54:00 PM 40.9769 28.8211 21° North  Level Estimated
Sun 04:55:00 PM 40.9769 28.8211 21° North  Level Estimated
Sun 04:56:00 PM 40.9769 28.8211 21° North  Level Estimated
Sun 04:57:00 PM 40.9769 28.8211 21° North  Level Estimated
Sun 04:58:00 PM 40.9769 28.8211 21° North  Level Estimated
Sun 04:59:00 PM 40.9769 28.8211 21° North  Level Estimated
Sun 05:00:00 PM 40.9769 28.8211 21° North  Level Estimated
Sun 05:01:00 PM 40.9769 28.8211 21° North  Level Estimated
Sun 05:02:00 PM 40.9769 28.8211 21° North  Level Estimated
Sun 05:03:00 PM 40.9769 28.8211 21° North  Level Estimated
Sun 05:04:00 PM 40.9769 28.8211 21° North  Level Estimated

Login

Don't have an account? Register now (free) for customized features, flight alerts, and more!